Flight Track Log - Related Links

Times and Time Zones

All times are in EDT time to prevent confusion due to time zone crossing. See the UPS110 flight status page for this flight to view local times or setup timezone preferences in your user account.

Time Position Orientation Groundspeed Altitude Reporting Facility
EDT Latitude Longitude Course Direction KTS MPH feet Rate Location/Type
Sun 02:23:26 AM 38.1780 -85.7280 38° Northeast 135 155  Level FlightAware ADS-B
Sun 02:23:52 AM 38.1580 -85.7210 165° South 167 192 1,400 3,158 Climbing FlightAware ADS-B
Sun 02:24:04 AM 38.1490 -85.7190 170° South 169 194 2,000 2,250 Climbing FlightAware ADS-B
Sun 02:24:24 AM 38.1320 -85.7150 170° South 197 227 2,600 1,500 Climbing FlightAware ADS-B
Sun 02:24:48 AM 38.1070 -85.7090 169° South 235 270 3,100 1,667 Climbing FlightAware ADS-B
Sun 02:25:00 AM 38.0950 -85.7060 169° South 242 278 3,600 2,250 Climbing FlightAware ADS-B
Sun 02:25:36 AM 38.0530 -85.7160 191° South 275 316 4,900 2,250 Climbing FlightAware ADS-B
Sun 02:25:40 AM 38.0490 -85.7200 218° Southwest 278 320 5,100 3,000 Climbing FlightAware ADS-B
Sun 02:25:48 AM 38.0430 -85.7300 233° Southwest 280 322 5,500 2,625 Climbing FlightAware ADS-B
Sun 02:25:56 AM 38.0380 -85.7420 242° Southwest 283 326 5,800 2,625 Climbing FlightAware ADS-B
Sun 02:26:04 AM 38.0350 -85.7550 254° West 284 327 6,200 2,571 Climbing FlightAware ADS-B
Sun 02:26:10 AM 38.0350 -85.7640 270° West 285 328 6,400 2,600 Climbing FlightAware ADS-B
Sun 02:26:34 AM 38.0450 -85.8020 288° West 289 333 7,500 2,667 Climbing FlightAware ADS-B
Sun 02:26:46 AM 38.0560 -85.8150 317° Northwest 288 331 8,000 2,667 Climbing FlightAware ADS-B
Sun 02:26:52 AM 38.0650 -85.8210 332° Northwest 286 329 8,300 3,000 Climbing FlightAware ADS-B
Sun 02:27:06 AM 38.0800 -85.8320 330° Northwest 285 328 9,000 2,647 Climbing FlightAware ADS-B
Sun 02:27:26 AM 38.1020 -85.8520 324° Northwest 292 336 9,800 1,821 Climbing FlightAware ADS-B
Sun 02:28:02 AM 38.1390 -85.8930 319° Northwest 319 367 10,700 1,417 Climbing FlightAware ADS-B
Sun 02:28:38 AM 38.1830 -85.9400 320° Northwest 361 415 11,500 1,833 Climbing FlightAware ADS-B
Sun 02:29:14 AM 38.2320 -85.9890 322° Northwest 384 442 12,900 2,735 Climbing FlightAware ADS-B
Sun 02:29:46 AM 38.2780 -86.0340 322° Northwest 393 452 14,600 3,086 Climbing FlightAware ADS-B
Sun 02:30:24 AM 38.3340 -86.0890 322° Northwest 403 464 16,500 2,838 Climbing FlightAware ADS-B
Sun 02:31:00 AM 38.3880 -86.1430 322° Northwest 415 478 18,100 2,559 Climbing FlightAware ADS-B
Sun 02:31:32 AM 38.4370 -86.1910 323° Northwest 426 490 19,400 2,471 Climbing FlightAware ADS-B
Sun 02:32:08 AM 38.4900 -86.2500 319° Northwest 434 499 20,900 2,382 Climbing FlightAware ADS-B
Sun 02:32:40 AM 38.5380 -86.3060 318° Northwest 444 511 22,100 2,294 Climbing FlightAware ADS-B
Sun 02:33:16 AM 38.5920 -86.3720 316° Northwest 451 519 23,500 2,351 Climbing FlightAware ADS-B
Sun 02:33:54 AM 38.6510 -86.4430 317° Northwest 456 525 25,000 2,229 Climbing FlightAware ADS-B
Sun 02:34:26 AM 38.6990 -86.5020 316° Northwest 460 529 26,100 2,029 Climbing FlightAware ADS-B
Sun 02:35:02 AM 38.7550 -86.5710 316° Northwest 466 536 27,300 1,917 Climbing FlightAware ADS-B
Sun 02:35:38 AM 38.8110 -86.6390 317° Northwest 471 542 28,400 1,765 Climbing FlightAware ADS-B
Sun 02:36:10 AM 38.8620 -86.7010 317° Northwest 477 549 29,300 1,869 Climbing FlightAware ADS-B
Sun 02:36:39 AM 38.9100 -86.7590 317° Northwest 477 549 30,300 1,913 Climbing FlightAware ADS-B
Sun 02:37:19 AM 38.9680 -86.8300 316° Northwest 475 547 31,500 1,800 Climbing FlightAware ADS-B
Sun 02:37:59 AM 39.0370 -86.9140 317° Northwest 477 549 32,700 1,680 Climbing FlightAware ADS-B
Sun 02:38:34 AM 39.0930 -86.9830 316° Northwest 476 548 33,600 1,147 Climbing FlightAware ADS-B
Sun 02:39:07 AM 39.1440 -87.0460 316° Northwest 473 544 34,000 348 Climbing FlightAware ADS-B
Sun 02:39:43 AM 39.2010 -87.1160 316° Northwest 468 539 34,000  Level FlightAware ADS-B
Sun 02:40:19 AM 39.2570 -87.1860 316° Northwest 466 536 34,000  Level FlightAware ADS-B
Sun 02:40:52 AM 39.3090 -87.2500 316° Northwest 465 535 34,000  Level FlightAware ADS-B
Sun 02:41:27 AM 39.3600 -87.3140 316° Northwest 466 536 34,000  Level FlightAware ADS-B
Sun 02:42:02 AM 39.4160 -87.3830 316° Northwest 466 536 34,000  Level FlightAware ADS-B
Sun 02:42:39 AM 39.4750 -87.4560 316° Northwest 462 532 34,000  Level FlightAware ADS-B
Sun 02:43:12 AM 39.5240 -87.5180 316° Northwest 454 522 34,000  Level FlightAware ADS-B
Sun 02:43:47 AM 39.5770 -87.5840 316° Northwest 451 519 34,000  Level FlightAware ADS-B
Sun 02:44:23 AM 39.6310 -87.6520 316° Northwest 451 519 34,000  Level FlightAware ADS-B
Sun 02:44:55 AM 39.6770 -87.7110 315° West 449 517 34,000  Level FlightAware ADS-B
Sun 02:45:31 AM 39.7330 -87.7800 317° Northwest 450 518 34,000  Level FlightAware ADS-B
Sun 02:46:09 AM 39.7890 -87.8510 316° Northwest 453 521 34,000  Level FlightAware ADS-B
Sun 02:46:45 AM 39.8440 -87.9210 316° Northwest 455 524 34,000  Level FlightAware ADS-B
Sun 02:47:17 AM 39.8910 -87.9810 316° Northwest 454 522 34,000  Level FlightAware ADS-B
Sun 02:47:53 AM 39.9440 -88.0480 316° Northwest 455 524 34,000  Level FlightAware ADS-B
Sun 02:48:29 AM 39.9990 -88.1190 315° West 456 525 34,000  Level FlightAware ADS-B
Sun 02:49:01 AM 40.0480 -88.1810 316° Northwest 458 527 34,000  Level FlightAware ADS-B
Sun 02:49:37 AM 40.1030 -88.2510 316° Northwest 458 527 34,000  Level FlightAware ADS-B
Sun 02:50:15 AM 40.1600 -88.3250 315° West 460 529 34,000  Level FlightAware ADS-B
Sun 02:50:47 AM 40.2080 -88.3870 315° West 460 529 34,000  Level FlightAware ADS-B
Sun 02:51:23 AM 40.2630 -88.4570 316° Northwest 461 531 34,000  Level FlightAware ADS-B
Sun 02:51:55 AM 40.3110 -88.5200 315° West 462 532 34,000  Level FlightAware ADS-B
Sun 02:52:32 AM 40.3670 -88.5930 315° West 463 533 34,000  Level FlightAware ADS-B
Sun 02:53:07 AM 40.4210 -88.6620 316° Northwest 463 533 34,000  Level FlightAware ADS-B
Sun 02:53:43 AM 40.4760 -88.7330 316° Northwest 463 533 34,000  Level FlightAware ADS-B
Sun 02:54:19 AM 40.5310 -88.8050 315° West 463 533 34,000  Level FlightAware ADS-B
Sun 02:54:51 AM 40.5790 -88.8690 315° West 461 531 34,000  Level FlightAware ADS-B
Sun 02:55:29 AM 40.6360 -88.9440 315° West 461 531 34,000  Level FlightAware ADS-B
Sun 02:56:01 AM 40.6850 -89.0070 316° Northwest 460 529 34,000  Level FlightAware ADS-B
Sun 02:56:38 AM 40.7390 -89.0790 315° West 458 527 34,000  Level FlightAware ADS-B
Sun 02:57:13 AM 40.7920 -89.1490 315° West 456 525 34,000  Level FlightAware ADS-B
Sun 02:57:49 AM 40.8470 -89.2220 315° West 455 524 34,000  Level FlightAware ADS-B
Sun 02:58:21 AM 40.8930 -89.2840 314° West 454 522 34,000  Level FlightAware ADS-B
Sun 02:58:57 AM 40.9470 -89.3550 315° West 452 520 34,000  Level FlightAware ADS-B
Sun 02:59:33 AM 40.9990 -89.4240 315° West 452 520 34,000  Level FlightAware ADS-B
Sun 03:00:07 AM 41.0490 -89.4910 315° West 451 519 34,000  Level FlightAware ADS-B
Sun 03:00:43 AM 41.1020 -89.5630 314° West 450 518 34,000  Level FlightAware ADS-B
Sun 03:01:19 AM 41.1550 -89.6330 315° West 451 519 34,000  Level FlightAware ADS-B
Sun 03:01:55 AM 41.2070 -89.7030 315° West 451 519 34,000  Level FlightAware ADS-B
Sun 03:02:27 AM 41.2540 -89.7660 315° West 451 519 34,000  Level FlightAware ADS-B
Sun 03:03:03 AM 41.3070 -89.8380 314° West 451 519 34,000  Level FlightAware ADS-B
Sun 03:03:39 AM 41.3590 -89.9090 314° West 452 520 34,000  Level FlightAware ADS-B
Sun 03:04:11 AM 41.4060 -89.9730 314° West 451 519 34,000  Level FlightAware ADS-B
Sun 03:04:47 AM 41.4580 -90.0440 314° West 451 519 34,000  Level FlightAware ADS-B
Sun 03:05:23 AM 41.5110 -90.1160 315° West 450 518 34,000  Level FlightAware ADS-B
Sun 03:05:59 AM 41.5640 -90.1880 315° West 449 517 34,000  Level FlightAware ADS-B
Sun 03:06:31 AM 41.6090 -90.2500 314° West 448 516 34,000  Level FlightAware ADS-B
Sun 03:07:07 AM 41.6610 -90.3220 314° West 447 514 34,000  Level FlightAware ADS-B
Sun 03:07:43 AM 41.7130 -90.3940 314° West 447 514 34,000  Level FlightAware ADS-B
Sun 03:08:19 AM 41.7650 -90.4650 314° West 446 513 34,000  Level FlightAware ADS-B
Sun 03:08:51 AM 41.8100 -90.5280 314° West 446 513 34,000  Level FlightAware ADS-B
Sun 03:09:27 AM 41.8630 -90.6010 314° West 446 513 34,000  Level FlightAware ADS-B
Sun 03:10:04 AM 41.9130 -90.6710 314° West 445 512 34,000  Level FlightAware ADS-B
Sun 03:10:39 AM 41.9640 -90.7430 314° West 444 511 34,000  Level FlightAware ADS-B
Sun 03:11:11 AM 42.0090 -90.8050 314° West 444 511 34,000  Level FlightAware ADS-B
Sun 03:11:47 AM 42.0580 -90.8740 314° West 444 511 34,000  Level FlightAware ADS-B
Sun 03:12:21 AM 42.1100 -90.9470 314° West 444 511 34,000  Level FlightAware ADS-B
Sun 03:12:57 AM 42.1610 -91.0200 313° West 444 511 34,000  Level FlightAware ADS-B
Sun 03:13:33 AM 42.2120 -91.0900 315° West 444 511 34,000  Level FlightAware ADS-B
Sun 03:14:09 AM 42.2630 -91.1630 313° West 444 511 34,000  Level FlightAware ADS-B
Sun 03:14:41 AM 42.3080 -91.2270 314° West 445 512 34,000  Level FlightAware ADS-B
Sun 03:15:13 AM 42.3540 -91.2920 314° West 445 512 34,000  Level FlightAware ADS-B
Sun 03:15:54 AM 42.4110 -91.3740 313° West 445 512 34,000  Level FlightAware ADS-B
Sun 03:16:29 AM 42.4610 -91.4450 314° West 445 512 34,000  Level FlightAware ADS-B
Sun 03:17:01 AM 42.5060 -91.5110 313° West 444 511 34,000  Level FlightAware ADS-B
Sun 03:17:37 AM 42.5570 -91.5840 313° West 444 511 34,000  Level FlightAware ADS-B
Sun 03:18:15 AM 42.6100 -91.6600 313° West 444 511 34,000  Level FlightAware ADS-B
Sun 03:18:47 AM 42.6550 -91.7250 313° West 443 510 34,000  Level FlightAware ADS-B
Sun 03:19:23 AM 42.7060 -91.7980 314° West 443 510 34,000  Level FlightAware ADS-B
Sun 03:19:58 AM 42.7540 -91.8680 313° West 443 510 34,000  Level FlightAware ADS-B
Sun 03:20:35 AM 42.8060 -91.9440 313° West 443 510 34,000  Level FlightAware ADS-B
Sun 03:21:07 AM 42.8510 -92.0100 313° West 443 510 34,000  Level FlightAware ADS-B
Sun 03:21:43 AM 42.9010 -92.0830 313° West 443 510 34,000  Level FlightAware ADS-B
Sun 03:22:19 AM 42.9520 -92.1570 313° West 443 510 34,000  Level FlightAware ADS-B
Sun 03:22:55 AM 43.0020 -92.2310 313° West 443 510 34,000  Level FlightAware ADS-B
Sun 03:23:28 AM 43.0480 -92.2980 313° West 443 510 34,000  Level FlightAware ADS-B
Sun 03:24:04 AM 43.0980 -92.3730 312° West 444 511 34,000  Level FlightAware ADS-B
Sun 03:24:36 AM 43.1420 -92.4370 313° West 444 511 34,000  Level FlightAware ADS-B
Sun 03:25:12 AM 43.1930 -92.5130 313° West 444 511 34,000  Level FlightAware ADS-B
Sun 03:25:48 AM 43.2420 -92.5870 312° West 444 511 34,000  Level FlightAware ADS-B
Sun 03:26:26 AM 43.2960 -92.6670 313° West 444 511 34,000  Level FlightAware ADS-B
Sun 03:26:56 AM 43.3370 -92.7280 313° West 444 511 34,000  Level FlightAware ADS-B
Sun 03:27:35 AM 43.3900 -92.8080 312° West 443 510 34,000  Level FlightAware ADS-B
Sun 03:28:10 AM 43.4380 -92.8810 312° West 442 509 34,000  Level FlightAware ADS-B
Sun 03:28:40 AM 43.4800 -92.9440 313° West 441 507 34,000  Level FlightAware ADS-B
Sun 03:29:16 AM 43.5290 -93.0180 312° West 439 505 34,000  Level FlightAware ADS-B
Sun 03:29:53 AM 43.5800 -93.0940 313° West 438 504 34,000  Level FlightAware ADS-B
Sun 03:30:31 AM 43.6320 -93.1730 312° West 436 502 34,000  Level FlightAware ADS-B
Sun 03:31:02 AM 43.6730 -93.2360 312° West 436 502 34,000  Level FlightAware ADS-B
Sun 03:31:38 AM 43.7230 -93.3130 312° West 436 502 34,000  Level FlightAware ADS-B
Sun 03:32:14 AM 43.7700 -93.3850 312° West 435 501 34,000  Level FlightAware ADS-B
Sun 03:32:50 AM 43.8200 -93.4610 312° West 434 499 34,000  Level FlightAware ADS-B
Sun 03:33:22 AM 43.8620 -93.5260 312° West 434 499 34,000  Level FlightAware ADS-B
Sun 03:33:59 AM 43.9110 -93.6020 312° West 433 498 34,000  Level FlightAware ADS-B
Sun 03:34:35 AM 43.9590 -93.6760 312° West 433 498 34,000  Level FlightAware ADS-B
Sun 03:35:07 AM 44.0030 -93.7440 312° West 433 498 34,000  Level FlightAware ADS-B
Sun 03:35:43 AM 44.0510 -93.8180 312° West 433 498 34,000  Level FlightAware ADS-B
Sun 03:36:19 AM 44.0990 -93.8930 312° West 433 498 34,000  Level FlightAware ADS-B
Sun 03:36:52 AM 44.1420 -93.9600 312° West 433 498 34,000  Level FlightAware ADS-B
Sun 03:37:27 AM 44.1890 -94.0340 312° West 433 498 34,000  Level FlightAware ADS-B
Sun 03:38:03 AM 44.2370 -94.1090 312° West 434 499 34,000  Level FlightAware ADS-B
Sun 03:38:41 AM 44.2870 -94.1880 311° West 434 499 34,000  Level FlightAware ADS-B
Sun 03:39:13 AM 44.3300 -94.2560 311° West 434 499 34,000  Level FlightAware ADS-B
Sun 03:39:49 AM 44.3770 -94.3300 312° West 434 499 34,000  Level FlightAware ADS-B
Sun 03:40:23 AM 44.4220 -94.4020 311° West 433 498 34,000  Level FlightAware ADS-B
Sun 03:41:01 AM 44.4730 -94.4840 311° West 434 499 34,000  Level FlightAware ADS-B
Sun 03:41:32 AM 44.5120 -94.5460 311° West 434 499 34,000  Level FlightAware ADS-B
Sun 03:42:11 AM 44.5650 -94.6300 312° West 433 498 34,000  Level FlightAware ADS-B
Sun 03:42:42 AM 44.6050 -94.6950 311° West 433 498 34,000  Level FlightAware ADS-B
Sun 03:43:18 AM 44.6530 -94.7710 312° West 432 497 34,000  Level FlightAware ADS-B
Sun 03:43:55 AM 44.7010 -94.8480 311° West 431 496 34,000  Level FlightAware ADS-B
Sun 03:44:31 AM 44.7490 -94.9260 311° West 431 496 34,000  Level FlightAware ADS-B
Sun 03:45:03 AM 44.7900 -94.9930 311° West 430 495 34,000  Level FlightAware ADS-B
Sun 03:45:39 AM 44.8380 -95.0700 311° West 429 494 34,000  Level FlightAware ADS-B
Sun 03:46:15 AM 44.8840 -95.1460 311° West 429 494 34,000  Level FlightAware ADS-B
Sun 03:46:48 AM 44.9260 -95.2140 311° West 428 493 34,000  Level FlightAware ADS-B
Sun 03:47:25 AM 44.9740 -95.2940 310° West 428 493 34,000  Level FlightAware ADS-B
Sun 03:48:01 AM 45.0200 -95.3690 311° West 428 493 34,000  Level FlightAware ADS-B
Sun 03:48:33 AM 45.0620 -95.4370 311° West 428 493 34,000  Level FlightAware ADS-B
Sun 03:49:08 AM 45.1060 -95.5110 310° West 428 493 34,000  Level FlightAware ADS-B
Sun 03:49:45 AM 45.1540 -95.5910 310° West 428 493 34,000  Level FlightAware ADS-B
Sun 03:50:17 AM 45.1950 -95.6580 311° West 428 493 34,000  Level FlightAware ADS-B
Sun 03:50:53 AM 45.2410 -95.7340 311° West 428 493 34,000  Level FlightAware ADS-B
Sun 03:51:29 AM 45.2870 -95.8120 310° West 428 493 34,000  Level FlightAware ADS-B
Sun 03:52:17 AM 45.3500 -95.9160 311° West 427 491 34,000  Level FlightAware ADS-B
Sun 03:52:55 AM 45.3980 -95.9970 310° West 427 491 34,000  Level FlightAware ADS-B
Sun 03:53:27 AM 45.4380 -96.0640 310° West 427 491 34,000  Level FlightAware ADS-B
Sun 03:54:03 AM 45.4830 -96.1410 310° West 427 491 34,000  Level FlightAware ADS-B
Sun 03:54:39 AM 45.5300 -96.2190 311° West 426 490 34,000  Level FlightAware ADS-B
Sun 03:55:19 AM 45.5790 -96.3030 310° West 426 490 34,000  Level FlightAware ADS-B
Sun 03:55:55 AM 45.6260 -96.3840 310° West 427 491 34,000  Level FlightAware ADS-B
Sun 03:56:27 AM 45.6670 -96.4530 310° West 426 490 34,000  Level FlightAware ADS-B
Sun 03:57:05 AM 45.7150 -96.5330 311° West 426 490 34,000  Level FlightAware ADS-B
Sun 03:57:41 AM 45.7610 -96.6140 309° West 426 490 34,000  Level FlightAware ADS-B
Sun 03:58:17 AM 45.8050 -96.6910 309° West 424 488 34,000  Level FlightAware ADS-B
Sun 03:58:49 AM 45.8450 -96.7600 310° West 424 488 34,000  Level FlightAware ADS-B
Sun 03:59:25 AM 45.8900 -96.8370 310° West 424 488 34,000  Level FlightAware ADS-B
Sun 04:00:00 AM 45.9330 -96.9120 310° West 424 488 34,000  Level FlightAware ADS-B
Sun 04:00:33 AM 45.9750 -96.9850 310° West 424 488 34,000  Level FlightAware ADS-B
Sun 04:01:11 AM 46.0220 -97.0680 309° West 424 488 34,000  Level FlightAware ADS-B
Sun 04:01:47 AM 46.0670 -97.1460 310° West 424 488 34,000  Level FlightAware ADS-B
Sun 04:02:19 AM 46.1070 -97.2160 310° West 424 488 34,000  Level FlightAware ADS-B
Sun 04:02:55 AM 46.1510 -97.2940 309° West 424 488 34,000  Level FlightAware ADS-B
Sun 04:03:31 AM 46.1960 -97.3720 310° West 423 487 34,000  Level FlightAware ADS-B
Sun 04:04:03 AM 46.2350 -97.4410 309° West 423 487 34,000  Level FlightAware ADS-B
Sun 04:04:41 AM 46.2740 -97.5120 308° West 423 487 34,000  Level FlightAware ADS-B
Sun 04:05:17 AM 46.3120 -97.5800 309° West 423 487 34,000  Level FlightAware ADS-B
Sun 04:05:53 AM 46.3500 -97.6470 309° West 423 487 34,000  Level FlightAware ADS-B
Sun 04:06:24 AM 46.4090 -97.7520 309° West 423 487 34,000  Level FlightAware ADS-B
Sun 04:06:57 AM 46.4420 -97.8140 308° West 423 487 34,000  Level FlightAware ADS-B
Sun 04:07:36 AM 46.4980 -97.9120 310° West 424 488 34,000  Level FlightAware ADS-B
Sun 04:08:18 AM 46.5400 -97.9910 308° West 424 488 34,000  Level FlightAware ADS-B
Sun 04:08:55 AM 46.5780 -98.0610 308° West 424 488 34,000  Level FlightAware ADS-B
Sun 04:09:31 AM 46.6150 -98.1300 308° West 424 488 34,000  Level FlightAware ADS-B
Sun 04:10:07 AM 46.6520 -98.1990 308° West 424 488 34,000  Level FlightAware ADS-B
Sun 04:10:44 AM 46.6900 -98.2700 308° West 424 488 34,000  Level FlightAware ADS-B
Sun 04:11:20 AM 46.7270 -98.3390 308° West 424 488 34,000  Level FlightAware ADS-B
Sun 04:11:57 AM 46.7650 -98.4100 308° West 424 488 34,000  Level FlightAware ADS-B
Sun 04:12:33 AM 46.8020 -98.4790 308° West 424 488 34,000  Level FlightAware ADS-B
Sun 04:13:10 AM 46.8400 -98.5500 308° West 424 488 34,000  Level FlightAware ADS-B
Sun 04:13:46 AM 46.8770 -98.6190 308° West 424 488 34,000  Level FlightAware ADS-B
Sun 04:14:22 AM 46.9140 -98.6880 308° West 424 488 34,000  Level FlightAware ADS-B
Sun 04:14:58 AM 46.9510 -98.7580 308° West 424 488 34,000  Level FlightAware ADS-B
Sun 04:15:32 AM 46.9860 -98.8230 308° West 424 488 34,000  Level FlightAware ADS-B
Sun 04:16:08 AM 47.0230 -98.8920 308° West 424 488 34,000  Level FlightAware ADS-B
Sun 04:16:44 AM 47.0600 -98.9620 308° West 424 488 34,000  Level FlightAware ADS-B
Sun 04:17:20 AM 47.0970 -99.0310 308° West 424 488 34,000  Level FlightAware ADS-B
Sun 04:17:53 AM 47.2342 -99.2714 308° West 421 484 34,000  Level Minneapolis Center
Sun 04:18:55 AM 47.3036 -99.4033 308° West 421 484 34,000  Level Minneapolis Center
Sun 04:19:55 AM 47.3753 -99.5403 308° West 421 484 34,000  Level Minneapolis Center
Sun 04:20:55 AM 47.4467 -99.6772 308° West 421 484 34,000  Level Minneapolis Center
Sun 04:21:56 AM 47.5181 -99.8142 308° West 421 484 34,000  Level Minneapolis Center
Sun 04:23:20 AM 47.6050 -99.9828 307° West 420 483 34,000 745 Level Minneapolis Center
Sun 04:24:21 AM 47.6872 -100.1433 307° West 416 479 35,800 992 Climbing Minneapolis Center
Sun 04:25:21 AM 47.7711 -100.3075 307° West 416 479 36,000 100 Climbing Minneapolis Center
Sun 04:26:21 AM 47.8406 -100.4442 307° West 416 479 36,000  Level Minneapolis Center
Sun 04:27:22 AM 47.9100 -100.5819 307° West 415 478 36,000  Level Minneapolis Center
Sun 04:28:22 AM 47.9789 -100.7192 307° West 415 478 36,000  Level Minneapolis Center
Sun 04:29:23 AM 48.0478 -100.8569 307° West 415 478 36,000  Level Minneapolis Center
Sun 04:30:23 AM 48.1164 -100.9953 307° West 415 478 36,000  Level Minneapolis Center
Sun 04:31:24 AM 48.1806 -101.1250 307° West 416 479 36,000  Level Minneapolis Center
Sun 04:32:24 AM 48.2492 -101.2642 307° West 418 481 36,000  Level Minneapolis Center
Sun 04:33:24 AM 48.3317 -101.3881 315° West 424 488 36,000  Level Minneapolis Center
Sun 04:34:25 AM 48.4192 -101.5078 318° Northwest 426 490 36,000  Level Minneapolis Center
Sun 04:35:25 AM 48.5050 -101.6294 317° Northwest 427 491 36,000  Level Minneapolis Center
Sun 04:36:26 AM 48.5936 -101.7556 317° Northwest 427 491 36,000  Level Minneapolis Center
Sun 04:37:26 AM 48.6767 -101.8742 317° Northwest 426 490 36,000  Level Minneapolis Center
Sun 04:38:26 AM 48.7622 -101.9964 317° Northwest 425 489 36,000  Level Minneapolis Center
Sun 04:44:22 AM 49.2820 -102.7530 317° Northwest 424 488 36,000  Level FlightAware ADS-B
Sun 04:45:12 AM 49.3460 -102.8490 316° Northwest 424 488 36,000  Level FlightAware ADS-B
Sun 04:45:49 AM 49.3890 -102.9160 315° West 424 488 36,000  Level FlightAware ADS-B
Sun 04:46:25 AM 49.4320 -102.9810 316° Northwest 424 488 36,000  Level FlightAware ADS-B
Sun 04:47:01 AM 49.4740 -103.0460 315° West 424 488 36,000  Level FlightAware ADS-B
Sun 04:47:37 AM 49.5170 -103.1120 315° West 424 488 36,000  Level FlightAware ADS-B
Sun 04:48:13 AM 49.5590 -103.1770 315° West 424 488 36,000  Level FlightAware ADS-B
Sun 04:48:49 AM 49.6020 -103.2430 315° West 424 488 36,000  Level FlightAware ADS-B
Sun 04:49:25 AM 49.6440 -103.3080 315° West 424 488 36,000  Level FlightAware ADS-B
Sun 04:50:01 AM 49.6860 -103.3740 315° West 424 488 36,000  Level FlightAware ADS-B
Sun 04:50:37 AM 49.7290 -103.4390 316° Northwest 424 488 36,000  Level FlightAware ADS-B
Sun 04:51:14 AM 49.8550 -103.6150 318° Northwest 431 496 36,000  Level FlightAware ADS-B
Sun 04:51:55 AM 49.9150 -103.7060 316° Northwest 432 497 36,000  Level FlightAware ADS-B
Sun 04:52:27 AM 49.9600 -103.7760 315° West 435 501 36,000  Level FlightAware ADS-B
Sun 04:53:00 AM 50.0060 -103.8460 316° Northwest 437 503 36,000  Level FlightAware ADS-B
Sun 04:53:40 AM 50.0650 -103.9390 315° West 439 505 36,000  Level FlightAware ADS-B
Sun 04:54:20 AM 50.1270 -104.0340 316° Northwest 441 507 36,000  Level FlightAware ADS-B
Sun 04:54:53 AM 50.1700 -104.1020 315° West 442 509 36,000  Level FlightAware ADS-B
Sun 04:55:29 AM 50.2220 -104.1830 315° West 444 511 36,000  Level FlightAware ADS-B
Sun 04:56:09 AM 50.2810 -104.2740 315° West 447 514 36,000  Level FlightAware ADS-B
Sun 04:56:50 AM 50.3360 -104.3620 314° West 449 517 36,000  Level FlightAware ADS-B
Sun 04:57:29 AM 50.3980 -104.4600 315° West 451 519 36,000  Level FlightAware ADS-B
Sun 04:58:01 AM 50.4450 -104.5350 315° West 454 522 36,000  Level FlightAware ADS-B
Sun 04:58:43 AM 50.5060 -104.6310 315° West 455 524 36,000  Level FlightAware ADS-B
Sun 04:59:23 AM 50.5650 -104.7250 315° West 457 526 36,000  Level FlightAware ADS-B
Sun 04:59:55 AM 50.6110 -104.8000 314° West 458 527 36,000  Level FlightAware ADS-B
Sun 05:00:35 AM 50.6700 -104.9010 313° West 459 528 36,000  Level FlightAware ADS-B
Sun 05:01:16 AM 50.7210 -105.0110 306° West 458 527 36,000  Level FlightAware ADS-B
Sun 05:01:48 AM 50.7580 -105.0980 304° West 457 526 36,000  Level FlightAware ADS-B
Sun 05:02:21 AM 50.7980 -105.1890 305° West 458 527 36,000  Level FlightAware ADS-B
Sun 05:02:53 AM 50.8350 -105.2760 304° West 457 526 36,000  Level FlightAware ADS-B
Sun 05:03:34 AM 50.8830 -105.3870 304° West 456 525 36,000  Level FlightAware ADS-B
Sun 05:04:06 AM 50.9230 -105.4790 305° West 454 522 36,000  Level FlightAware ADS-B
Sun 05:04:48 AM 50.9690 -105.5880 304° West 452 520 36,000  Level FlightAware ADS-B
Sun 05:05:28 AM 51.0220 -105.7100 305° West 448 516 36,000  Level FlightAware ADS-B
Sun 05:06:00 AM 51.0560 -105.7910 304° West 446 513 36,000  Level FlightAware ADS-B
Sun 05:06:32 AM 51.0920 -105.8770 304° West 444 511 36,000  Level FlightAware ADS-B
Sun 05:07:13 AM 51.1400 -105.9910 304° West 442 509 36,000  Level FlightAware ADS-B
Sun 05:07:45 AM 51.1740 -106.0710 304° West 440 506 36,000  Level FlightAware ADS-B
Sun 05:08:26 AM 51.2230 -106.1880 304° West 438 504 36,000  Level FlightAware ADS-B
Sun 05:09:06 AM 51.2620 -106.2820 304° West 437 503 36,000  Level FlightAware ADS-B
Sun 05:09:42 AM 51.3050 -106.3850 304° West 435 501 36,000  Level FlightAware ADS-B
Sun 05:10:06 AM 51.3340 -106.4390 311° West 437 503 36,000  Level FlightAware ADS-B
Sun 05:10:36 AM 51.3870 -106.5030 323° Northwest 438 504 36,000  Level FlightAware ADS-B
Sun 05:11:36 AM 51.4810 -106.6080 325° Northwest 438 504 36,000  Level FlightAware ADS-B
Sun 05:12:12 AM 51.5310 -106.6660 324° Northwest 438 504 36,000  Level FlightAware ADS-B
Sun 05:12:48 AM 51.5820 -106.7230 325° Northwest 438 504 36,000  Level FlightAware ADS-B
Sun 05:13:24 AM 51.6330 -106.7800 325° Northwest 438 504 36,000  Level FlightAware ADS-B
Sun 05:14:02 AM 51.6870 -106.8410 325° Northwest 438 504 36,000  Level FlightAware ADS-B
Sun 05:14:39 AM 51.7390 -106.9000 325° Northwest 438 504 36,000  Level FlightAware ADS-B
Sun 05:15:15 AM 51.7900 -106.9570 325° Northwest 438 504 36,000  Level FlightAware ADS-B
Sun 05:15:51 AM 51.8400 -107.0150 324° Northwest 438 504 36,000  Level FlightAware ADS-B
Sun 05:16:27 AM 51.8910 -107.0720 325° Northwest 438 504 36,000  Level FlightAware ADS-B
Sun 05:17:03 AM 51.9420 -107.1300 325° Northwest 438 504 36,000  Level FlightAware ADS-B
Sun 05:17:41 AM 51.9960 -107.1910 325° Northwest 438 504 36,000  Level FlightAware ADS-B
Sun 05:18:17 AM 52.0460 -107.2490 325° Northwest 438 504 36,000  Level FlightAware ADS-B
Sun 05:18:54 AM 52.0990 -107.3080 326° Northwest 438 504 36,000  Level FlightAware ADS-B
Sun 05:19:30 AM 52.1490 -107.3660 325° Northwest 438 504 36,000  Level FlightAware ADS-B
Sun 05:20:07 AM 52.2020 -107.4260 325° Northwest 438 504 36,000  Level FlightAware ADS-B
Sun 05:20:43 AM 52.2520 -107.4840 325° Northwest 438 504 36,000  Level FlightAware ADS-B
Sun 05:22:01 AM 52.3333 -108.0833 325° Northwest 430 495 36,000  Level Edmonton Center
Sun 05:23:01 AM 52.3833 -108.2333 299° West 430 495 36,000  Level Edmonton Center
Sun 05:24:01 AM 52.4500 -108.4000 303° West 430 495 36,000  Level Edmonton Center
Sun 05:25:01 AM 52.5333 -108.5833 307° West 430 495 36,000  Level Edmonton Center
Sun 05:26:01 AM 52.6000 -108.7500 303° West 430 495 36,000  Level Edmonton Center
Sun 05:27:01 AM 52.6500 -108.9000 299° West 430 495 36,000  Level Edmonton Center
Sun 05:28:01 AM 52.7333 -109.0667 310° West 430 495 36,000  Level Edmonton Center
Sun 05:28:51 AM 52.8000 -109.2500 301° West 440 506 36,000  Level Winnipeg Center
Sun 05:29:01 AM 52.8000 -109.2500 301° West 430 495 36,000  Level Edmonton Center
Sun 05:29:51 AM 52.8667 -109.4000 306° West 440 506 36,000  Level Winnipeg Center
Sun 05:31:01 AM 52.9333 -109.5667 304° West 430 495 36,000  Level Edmonton Center
Sun 05:32:01 AM 53.0000 -109.7500 301° West 430 495 36,000  Level Edmonton Center
Sun 05:33:01 AM 53.0500 -109.9167 297° West 430 495 36,000  Level Edmonton Center
Sun 05:34:01 AM 53.1333 -110.1000 307° West 430 495 36,000  Level Edmonton Center
Sun 05:39:45 AM 53.5300 -111.0330 307° West 36,000  Level FlightAware ADS-B
Sun 05:40:20 AM 53.5650 -111.1290 302° West 429 494 36,000  Level FlightAware ADS-B
Sun 05:41:04 AM 53.6100 -111.2520 302° West 429 494 36,000  Level FlightAware ADS-B
Sun 05:41:42 AM 53.6430 -111.3450 301° West 429 494 36,000  Level FlightAware ADS-B
Sun 05:42:18 AM 53.6740 -111.4330 301° West 429 494 36,000  Level FlightAware ADS-B
Sun 05:42:54 AM 53.7050 -111.5210 301° West 429 494 36,000  Level FlightAware ADS-B
Sun 05:43:31 AM 53.7370 -111.6110 301° West 429 494 36,000  Level FlightAware ADS-B
Sun 05:44:05 AM 53.8090 -111.7870 305° West 435 501 36,000  Level FlightAware ADS-B
Sun 05:44:35 AM 53.8380 -111.8660 302° West 435 501 36,000  Level FlightAware ADS-B
Sun 05:45:17 AM 53.8810 -111.9850 302° West 436 502 36,000  Level FlightAware ADS-B
Sun 05:45:53 AM 53.9220 -112.0990 301° West 435 501 36,000  Level FlightAware ADS-B
Sun 05:46:23 AM 53.9530 -112.1850 302° West 434 499 36,000  Level FlightAware ADS-B
Sun 05:46:53 AM 53.9830 -112.2660 302° West 433 498 36,000  Level FlightAware ADS-B
Sun 05:47:31 AM 54.0220 -112.3750 301° West 432 497 36,000  Level FlightAware ADS-B
Sun 05:48:07 AM 54.0580 -112.4770 301° West 431 496 36,000  Level FlightAware ADS-B
Sun 05:48:43 AM 54.0970 -112.5890 301° West 431 496 36,000  Level FlightAware ADS-B
Sun 05:49:19 AM 54.1320 -112.6870 301° West 430 495 36,000  Level FlightAware ADS-B
Sun 05:49:55 AM 54.1710 -112.7960 301° West 428 493 36,000  Level FlightAware ADS-B
Sun 05:50:31 AM 54.2080 -112.9020 301° West 428 493 36,000  Level FlightAware ADS-B
Sun 05:51:09 AM 54.2310 -112.9690 300° West 427 491 36,000  Level FlightAware ADS-B
Sun 05:51:48 AM 54.2800 -113.1070 301° West 427 491 36,000  Level FlightAware ADS-B
Sun 05:52:23 AM 54.3190 -113.2210 300° West 428 493 36,000  Level FlightAware ADS-B
Sun 05:52:55 AM 54.3300 -113.2540 300° West 428 493 36,000  Level FlightAware ADS-B
Sun 05:53:25 AM 54.3810 -113.4020 301° West 428 493 36,000  Level FlightAware ADS-B
Sun 05:54:05 AM 54.4150 -113.5030 300° West 428 493 36,000  Level FlightAware ADS-B
Sun 05:54:39 AM 54.4030 -113.4680 120° Southeast 428 493 36,000  Level FlightAware ADS-B
Sun 05:55:15 AM 54.4330 -113.5580 300° West 428 493 36,000  Level FlightAware ADS-B
Sun 05:55:51 AM 54.4640 -113.6480 301° West 428 493 36,000  Level FlightAware ADS-B
Sun 05:56:27 AM 54.4940 -113.7380 300° West 428 493 36,000  Level FlightAware ADS-B
Sun 05:57:03 AM 54.5240 -113.8290 300° West 428 493 36,000  Level FlightAware ADS-B
Sun 05:57:39 AM 54.5550 -113.9190 301° West 428 493 36,000  Level FlightAware ADS-B
Sun 05:58:15 AM 54.5850 -114.0100 300° West 428 493 36,000  Level FlightAware ADS-B
Sun 05:58:51 AM 54.6150 -114.1000 300° West 428 493 36,000  Level FlightAware ADS-B
Sun 05:59:28 AM 54.6460 -114.1940 300° West 428 493 36,000  Level FlightAware ADS-B
Sun 06:00:04 AM 54.6760 -114.2840 300° West 428 493 36,000  Level FlightAware ADS-B
Sun 06:00:40 AM 54.7070 -114.3750 301° West 428 493 36,000  Level FlightAware ADS-B
Sun 06:01:16 AM 54.7370 -114.4660 300° West 428 493 36,000  Level FlightAware ADS-B
Sun 06:01:52 AM 54.7670 -114.5570 300° West 428 493 36,000  Level FlightAware ADS-B
Sun 06:02:28 AM 54.7980 -114.6480 301° West 428 493 36,000  Level FlightAware ADS-B
Sun 06:03:04 AM 54.8280 -114.7390 300° West 428 493 36,000  Level FlightAware ADS-B
Sun 06:03:40 AM 54.8580 -114.8300 300° West 428 493 36,000  Level FlightAware ADS-B
Sun 06:05:01 AM 55.0167 -115.4500 300° West 410 472 36,000  Level Edmonton Center
Sun 06:06:01 AM 55.0833 -115.6500 300° West 410 472 36,000  Level Edmonton Center
Sun 06:07:01 AM 55.1167 -115.8167 289° West 410 472 36,000  Level Edmonton Center
Sun 06:08:01 AM 55.2000 -115.9833 311° West 400 460 36,000  Level Edmonton Center
Sun 06:09:01 AM 55.2500 -116.1500 298° West 400 460 36,000  Level Edmonton Center
Sun 06:10:01 AM 55.3000 -116.3500 294° West 400 460 36,000  Level Edmonton Center
Sun 06:11:01 AM 55.3500 -116.5000 300° West 400 460 36,000  Level Edmonton Center
Sun 06:12:01 AM 55.4000 -116.7000 294° West 400 460 36,000  Level Edmonton Center
Sun 06:13:01 AM 55.4500 -116.8667 298° West 400 460 36,000  Level Edmonton Center
Sun 06:14:01 AM 55.5000 -117.0333 298° West 400 460 36,000  Level Edmonton Center
Sun 06:15:01 AM 55.5500 -117.2000 298° West 400 460 36,000  Level Edmonton Center
Sun 06:16:01 AM 55.6000 -117.3833 296° West 400 460 36,000  Level Edmonton Center
Sun 06:17:01 AM 55.6500 -117.5667 296° West 390 449 36,000  Level Edmonton Center
Sun 06:18:01 AM 55.7000 -117.7500 296° West 390 449 36,000  Level Edmonton Center
Sun 06:19:01 AM 55.7500 -117.9167 298° West 390 449 36,000  Level Edmonton Center
Sun 06:20:01 AM 55.8000 -118.0833 298° West 390 449 36,000  Level Edmonton Center
Sun 06:21:01 AM 55.8500 -118.2500 298° West 390 449 36,000  Level Edmonton Center
Sun 06:22:01 AM 55.9000 -118.4333 296° West 390 449 36,000  Level Edmonton Center
Sun 06:23:01 AM 55.9500 -118.6333 294° West 390 449 36,000  Level Edmonton Center
Sun 06:24:01 AM 56.0000 -118.8000 298° West 390 449 36,000  Level Edmonton Center
Sun 06:25:01 AM 56.0500 -118.9667 298° West 390 449 36,000  Level Edmonton Center
Sun 06:26:01 AM 56.1000 -119.1500 296° West 390 449 36,000  Level Edmonton Center
Sun 06:27:01 AM 56.1500 -119.3167 298° West 390 449 36,000  Level Edmonton Center
Sun 06:28:01 AM 56.1833 -119.5167 287° West 390 449 36,000  Level Edmonton Center
Sun 06:29:01 AM 56.2333 -119.6667 301° West 390 449 36,000  Level Edmonton Center
Sun 06:30:01 AM 56.2833 -119.8667 294° West 390 449 36,000  Level Edmonton Center
Sun 06:31:01 AM 56.3333 -120.0500 296° West 390 449 36,000  Level Edmonton Center
Sun 06:32:01 AM 56.3833 -120.2167 299° West 390 449 36,000  Level Edmonton Center
Sun 06:33:01 AM 56.4167 -120.4000 288° West 390 449 36,000  Level Edmonton Center
Sun 06:34:01 AM 56.4667 -120.5667 299° West 390 449 36,000  Level Edmonton Center
Sun 06:35:01 AM 56.5333 -120.7500 303° West 390 449 36,000  Level Edmonton Center
Sun 06:36:01 AM 56.5833 -120.9333 296° West 390 449 36,000  Level Edmonton Center
Sun 06:37:01 AM 56.6167 -121.1167 288° West 390 449 36,000  Level Edmonton Center
Sun 06:38:01 AM 56.6833 -121.2667 309° West 400 460 36,000  Level Edmonton Center
Sun 06:39:01 AM 56.7333 -121.4833 293° West 400 460 36,000  Level Edmonton Center
Sun 06:40:01 AM 56.7833 -121.6500 299° West 400 460 36,000  Level Edmonton Center
Sun 06:41:01 AM 56.8333 -121.8500 295° West 410 472 36,000  Level Edmonton Center
Sun 06:42:01 AM 56.8833 -122.0167 299° West 400 460 36,000  Level Edmonton Center
Sun 06:43:01 AM 56.9333 -122.2167 295° West 410 472 36,000  Level Edmonton Center
Sun 06:44:01 AM 56.9833 -122.4000 297° West 410 472 36,000  Level Edmonton Center
Sun 06:45:01 AM 57.0500 -122.5833 304° West 410 472 36,000  Level Edmonton Center
Sun 06:46:01 AM 57.0833 -122.7667 289° West 400 460 36,000  Level Edmonton Center
Sun 06:47:01 AM 57.1500 -122.9500 304° West 410 472 36,000  Level Edmonton Center
Sun 06:48:01 AM 57.1833 -123.1333 289° West 400 460 36,000  Level Edmonton Center
Sun 06:49:01 AM 57.2500 -123.3333 302° West 400 460 36,000  Level Edmonton Center
Sun 06:50:01 AM 57.2833 -123.5167 289° West 400 460 36,000  Level Edmonton Center
Sun 06:51:01 AM 57.3500 -123.7000 304° West 410 472 36,000  Level Edmonton Center
Sun 06:52:01 AM 57.3833 -123.9167 286° West 410 472 36,000  Level Edmonton Center
Sun 06:53:01 AM 57.4500 -124.0833 307° West 410 472 36,000  Level Edmonton Center
Sun 06:54:01 AM 57.4833 -124.3000 286° West 410 472 36,000  Level Edmonton Center
Sun 06:55:01 AM 57.5333 -124.5000 295° West 420 483 36,000  Level Edmonton Center
Sun 06:56:01 AM 57.6000 -124.6833 304° West 430 495 36,000  Level Edmonton Center
Sun 06:57:01 AM 57.6333 -124.8833 287° West 430 495 36,000  Level Edmonton Center
Sun 06:58:01 AM 57.6833 -125.1000 293° West 430 495 36,000  Level Edmonton Center
Sun 07:01:00 AM 57.7941 -125.4881 298° West  Level FlightAware Approximate
Sun 07:08:00 AM 58.1741 -126.8780 297° West  Level FlightAware Approximate
Sun 07:09:00 AM 58.2269 -127.0792 297° West  Level FlightAware Approximate
Sun 07:10:00 AM 58.2794 -127.2810 296° West  Level FlightAware Approximate
Sun 07:11:00 AM 58.3316 -127.4834 296° West  Level FlightAware Approximate
Sun 07:12:00 AM 58.3834 -127.6864 296° West  Level FlightAware Approximate
Sun 07:13:00 AM 58.4349 -127.8900 296° West  Level FlightAware Approximate
Sun 07:14:00 AM 58.4788 -128.1001 290° West  Level FlightAware Approximate
Sun 07:15:00 AM 58.5192 -128.3131 290° West  Level FlightAware Approximate
Sun 07:16:00 AM 58.5593 -128.5267 290° West  Level FlightAware Approximate
Sun 07:17:00 AM 58.5990 -128.7407 290° West  Level FlightAware Approximate
Sun 07:18:00 AM 58.6384 -128.9552 290° West  Level FlightAware Approximate
Sun 07:19:00 AM 58.6775 -129.1702 289° West  Level FlightAware Approximate
Sun 07:20:00 AM 58.7161 -129.3857 289° West  Level FlightAware Approximate
Sun 07:21:00 AM 58.7544 -129.6016 289° West  Level FlightAware Approximate
Sun 07:22:00 AM 58.7924 -129.8181 289° West  Level FlightAware Approximate
Sun 07:23:00 AM 58.8300 -130.0350 289° West  Level FlightAware Approximate
Sun 07:24:00 AM 58.8672 -130.2523 288° West  Level FlightAware Approximate
Sun 07:25:00 AM 58.9040 -130.4699 288° West  Level FlightAware Approximate
Sun 07:26:00 AM 58.9404 -130.6879 288° West  Level FlightAware Approximate
Sun 07:27:00 AM 58.9765 -130.9063 288° West  Level FlightAware Approximate
Sun 07:28:00 AM 59.0122 -131.1252 288° West  Level FlightAware Approximate
Sun 07:29:00 AM 59.0475 -131.3445 287° West  Level FlightAware Approximate
Sun 07:30:00 AM 59.0825 -131.5643 287° West  Level FlightAware Approximate
Sun 07:31:00 AM 59.1171 -131.7846 287° West  Level FlightAware Approximate
Sun 07:32:00 AM 59.1513 -132.0053 287° West  Level FlightAware Approximate
Sun 07:33:00 AM 59.1851 -132.2264 287° West  Level FlightAware Approximate
Sun 07:34:00 AM 59.2186 -132.4480 287° West  Level FlightAware Approximate
Sun 07:35:00 AM 59.2516 -132.6700 286° West  Level FlightAware Approximate
Sun 07:36:00 AM 59.2843 -132.8924 286° West  Level FlightAware Approximate
Sun 07:37:00 AM 59.3186 -133.1158 287° West  Level FlightAware Approximate
Sun 07:37:42 AM 59.4500 -133.9667 287° West 480 552 36,000  Level Anchorage Center
Sun 07:38:00 AM 59.3537 -133.3372 287° West  Level FlightAware Approximate
Sun 07:38:42 AM 59.4833 -134.2000 286° West 470 541 36,000  Level Anchorage Center
Sun 07:39:00 AM 59.3885 -133.5591 287° West  Level FlightAware Approximate
Sun 07:39:42 AM 59.5167 -134.4500 285° West 470 541 36,000  Level Anchorage Center
Sun 07:40:00 AM 59.4230 -133.7814 287° West  Level FlightAware Approximate
Sun 07:40:42 AM 59.5667 -134.7000 292° West 470 541 36,000  Level Anchorage Center
Sun 07:41:00 AM 59.4570 -134.0042 287° West  Level FlightAware Approximate
Sun 07:41:42 AM 59.6000 -134.9500 285° West 470 541 36,000  Level Anchorage Center
Sun 07:42:00 AM 59.4907 -134.2274 287° West  Level FlightAware Approximate
Sun 07:42:42 AM 59.6333 -135.2000 285° West 470 541 36,000  Level Anchorage Center
Sun 07:43:42 AM 59.6667 -135.4500 285° West 470 541 36,000  Level Anchorage Center
Sun 07:44:42 AM 59.7000 -135.7000 285° West 470 541 36,000  Level Anchorage Center
Sun 07:45:43 AM 59.7333 -135.9500 285° West 470 541 36,000  Level Anchorage Center
Sun 07:46:43 AM 59.7667 -136.2000 285° West 470 541 36,000  Level Anchorage Center
Sun 07:47:43 AM 59.8000 -136.4500 285° West 470 541 36,000  Level Anchorage Center
Sun 07:48:43 AM 59.8333 -136.7000 285° West 470 541 36,000  Level Anchorage Center
Sun 07:49:43 AM 59.8667 -136.9500 285° West 470 541 36,000  Level Anchorage Center
Sun 07:50:43 AM 59.9000 -137.2000 285° West 460 529 36,000  Level Anchorage Center
Sun 07:51:43 AM 59.9167 -137.4667 277° West 470 541 36,000  Level Anchorage Center
Sun 07:52:43 AM 59.9500 -137.7167 285° West 470 541 36,000  Level Anchorage Center
Sun 07:53:43 AM 59.9833 -137.9667 285° West 470 541 36,000  Level Anchorage Center
Sun 07:54:43 AM 60.0167 -138.2167 285° West 470 541 36,000  Level Anchorage Center
Sun 07:55:44 AM 60.0500 -138.4833 284° West 470 541 36,000  Level Anchorage Center
Sun 07:56:44 AM 60.0667 -138.7333 278° West 470 541 36,000  Level Anchorage Center
Sun 07:57:44 AM 60.1000 -139.0000 284° West 470 541 36,000  Level Anchorage Center
Sun 07:58:44 AM 60.1167 -139.2500 278° West 470 541 36,000  Level Anchorage Center
Sun 07:59:44 AM 60.1333 -139.5167 277° West 470 541 36,000  Level Anchorage Center
Sun 08:00:44 AM 60.1667 -139.7667 285° West 470 541 36,000  Level Anchorage Center
Sun 08:01:44 AM 60.1833 -140.0333 277° West 470 541 36,000  Level Anchorage Center
Sun 08:02:45 AM 60.2000 -140.2833 278° West 470 541 36,000  Level Anchorage Center
Sun 08:03:44 AM 60.2167 -140.5500 277° West 470 541 36,000  Level Anchorage Center
Sun 08:04:44 AM 60.2333 -140.8000 278° West 460 529 36,000  Level Anchorage Center
Sun 08:05:45 AM 60.2500 -141.0667 277° West 470 541 36,000  Level Anchorage Center
Sun 08:06:45 AM 60.2667 -141.3167 278° West 460 529 36,000  Level Anchorage Center
Sun 08:07:45 AM 60.2833 -141.5833 277° West 460 529 36,000  Level Anchorage Center
Sun 08:08:45 AM 60.3000 -141.8333 278° West 460 529 36,000  Level Anchorage Center
Sun 08:09:45 AM 60.3000 -142.1000 270° West 460 529 36,000  Level Anchorage Center
Sun 08:10:45 AM 60.3167 -142.3500 278° West 460 529 36,000  Level Anchorage Center
Sun 08:11:45 AM 60.3333 -142.6167 277° West 470 541 36,000  Level Anchorage Center
Sun 08:12:46 AM 60.3500 -142.8667 278° West 460 529 36,000  Level Anchorage Center
Sun 08:13:46 AM 60.3500 -143.1333 270° West 460 529 36,000  Level Anchorage Center
Sun 08:14:46 AM 60.3667 -143.3833 278° West 460 529 36,000  Level Anchorage Center
Sun 08:15:46 AM 60.3833 -143.6500 277° West 460 529 36,000  Level Anchorage Center
Sun 08:16:46 AM 60.3833 -143.9000 270° West 460 529 36,000  Level Anchorage Center
Sun 08:17:46 AM 60.4000 -144.1667 277° West 460 529 36,000  Level Anchorage Center
Sun 08:18:46 AM 60.4167 -144.4167 278° West 460 529 36,000  Level Anchorage Center
Sun 08:19:46 AM 60.4167 -144.6833 270° West 460 529 36,000  Level Anchorage Center
Sun 08:20:47 AM 60.4333 -144.9333 278° West 460 529 36,000  Level Anchorage Center
Sun 08:21:47 AM 60.4333 -145.2000 270° West 460 529 36,000  Level Anchorage Center
Sun 08:22:47 AM 60.4500 -145.4667 277° West 460 529 36,000  Level Anchorage Center
Sun 08:23:47 AM 60.4500 -145.7167 270° West 460 529 36,000  Level Anchorage Center
Sun 08:24:47 AM 60.4667 -145.9833 277° West 460 529 36,000 -569 Level Anchorage Center
Sun 08:30:28 AM 60.7170 -147.5020 277° West 506 582 32,200 -796 Descending FlightAware ADS-B
Sun 08:31:04 AM 60.7430 -147.6650 288° West 501 577 31,000 -1,917 Descending FlightAware ADS-B
Sun 08:31:40 AM 60.7690 -147.8240 289° West 502 578 29,900 -1,917 Descending FlightAware ADS-B
Sun 08:32:16 AM 60.7950 -147.9880 288° West 506 582 28,700 -2,000 Descending FlightAware ADS-B
Sun 08:32:46 AM 60.8170 -148.1260 288° West 501 577 27,700 -2,471 Descending FlightAware ADS-B
Sun 08:33:24 AM 60.8440 -148.2970 288° West 495 570 25,900 -2,571 Descending FlightAware ADS-B
Sun 08:33:56 AM 60.8650 -148.4340 288° West 478 550 24,700 -2,206 Descending FlightAware ADS-B
Sun 08:34:32 AM 60.8890 -148.5900 288° West 464 534 23,400 -2,500 Descending FlightAware ADS-B
Sun 08:35:08 AM 60.9120 -148.7380 288° West 456 525 21,700 -2,514 Descending FlightAware ADS-B
Sun 08:35:46 AM 60.9350 -148.8910 287° West 437 503 20,300 -2,314 Descending FlightAware ADS-B
Sun 08:36:18 AM 60.9530 -149.0170 286° West 427 491 19,000 -2,559 Descending FlightAware ADS-B
Sun 08:36:54 AM 60.9740 -149.1550 287° West 420 483 17,400 -2,571 Descending FlightAware ADS-B
Sun 08:37:14 AM 60.9830 -149.2340 283° West 420 483 16,600 -2,143 Descending FlightAware ADS-B
Sun 08:37:50 AM 60.9910 -149.3730 277° West 410 472 15,400 -2,000 Descending FlightAware ADS-B
Sun 08:38:20 AM 60.9980 -149.4880 277° West 403 464 14,400 -1,971 Descending FlightAware ADS-B
Sun 08:39:00 AM 61.0070 -149.6370 277° West 382 440 13,100 -1,760 Descending FlightAware ADS-B
Sun 08:39:35 AM 61.0140 -149.7540 277° West 337 388 12,200 -1,500 Descending FlightAware ADS-B
Sun 08:40:12 AM 61.0210 -149.8660 277° West 299 344 11,300 -1,391 Descending FlightAware ADS-B
Sun 08:40:44 AM 61.0250 -149.9520 276° West 278 320 10,600 -1,324 Descending FlightAware ADS-B
Sun 08:41:20 AM 61.0280 -150.0460 274° West 259 298 9,800 -1,179 Descending FlightAware ADS-B
Sun 08:41:40 AM 61.0290 -150.0920 273° West 241 277 9,500 -732 Descending FlightAware ADS-B
Sun 08:42:01 AM 61.0300 -150.1360 273° West 216 249 9,300 -1,000 Descending FlightAware ADS-B
Sun 08:42:22 AM 61.0300 -150.1790 270° West 205 236 8,800 -1,500 Descending FlightAware ADS-B
Sun 08:42:37 AM 61.0320 -150.2030 280° West 198 228 8,400 -1,875 Descending FlightAware ADS-B
Sun 08:42:54 AM 61.0370 -150.2350 288° West 196 226 7,800 -1,953 Descending FlightAware ADS-B
Sun 08:43:20 AM 61.0450 -150.2830 289° West 194 223 7,000 -1,826 Descending FlightAware ADS-B
Sun 08:43:40 AM 61.0500 -150.3190 286° West 193 222 6,400 -1,857 Descending FlightAware ADS-B
Sun 08:44:02 AM 61.0600 -150.3510 303° West 184 212 5,700 -1,800 Descending FlightAware ADS-B
Sun 08:44:10 AM 61.0660 -150.3570 334° Northwest 178 205 5,500 -1,500 Descending FlightAware ADS-B
Sun 08:44:14 AM 61.0690 -150.3570 360° North 176 203 5,400 -1,742 Descending FlightAware ADS-B
Sun 08:44:41 AM 61.0900 -150.3540 North 178 205 4,600 -1,565 Descending FlightAware ADS-B
Sun 08:45:00 AM 61.1050 -150.3500 North 178 205 4,200 -1,459 Descending FlightAware ADS-B
Sun 08:45:18 AM 61.1210 -150.3470 North 168 193 3,700 -1,421 Descending FlightAware ADS-B
Sun 08:45:38 AM 61.1350 -150.3370 19° North 165 190 3,300 -857 Descending FlightAware ADS-B
Sun 08:45:46 AM 61.1390 -150.3270 50° Northeast 169 194 3,300 -643 Level FlightAware ADS-B
Sun 08:46:06 AM 61.1450 -150.2960 68° East 173 199 3,000 -750 Descending FlightAware ADS-B
Sun 08:46:26 AM 61.1520 -150.2660 64° Northeast 171 197 2,800 -818 Descending FlightAware ADS-B
Sun 08:46:50 AM 61.1600 -150.2320 64° Northeast 162 186 2,400 -955 Descending FlightAware ADS-B
Sun 08:47:10 AM 61.1660 -150.2050 65° Northeast 145 167 2,100 -857 Descending FlightAware ADS-B
Sun 08:47:18 AM 61.1670 -150.1950 78° East 144 166 2,000 -783 Descending FlightAware ADS-B
Sun 08:47:33 AM 61.1670 -150.1760 90° East 141 162 1,800 -750 Descending FlightAware ADS-B
Sun 08:47:58 AM 61.1680 -150.1400 87° East 141 162 1,500 -700 Descending FlightAware ADS-B
Sun 08:48:33 AM 61.1680 -150.0950 90° East 136 157 1,100 -652 Descending FlightAware ADS-B
Sun 08:48:44 AM 61.1680 -150.0810 90° East 134 154 1,000 -545 Descending FlightAware ADS-B
Sun 08:49:23 AM 61.1680 -150.0310 90° East 130 150 -1,538 Descending FlightAware ADS-B
Sun 08:49:37 AM 61.1680 -150.0190 90° East 88 101  Level FlightAware ADS-B

Login

Don't have an account? Register now (free) for customized features, flight alerts, and more!